Mason Dixon, Pennsylvania
Current Conditions -  °F | °C
As of 3:24 PM on Monday 26 Jan 2015 (Local Time) from KHGR Reporting Station
Haze Haze  
Wind Chill: 14°   Ceiling: 2400
Heat Index: 25°   Visibility: 3mi
Dew Point: 20°   Wind: 12mph
Humidity: 81%   Direction: 10°N
Pressure: 29.73"   Gusts: NA
Location:  39.7874°N, 77.754°W
Report Text: KHGR 262024Z 01010KT 3SM HZ OVC024 M04/M07 A2973 RMK AO2 SNE10 P0000 T10391067
Loading
Personal Weather Stations






























Interactive Weather Map New forecast layout! Learn more

10-Day Weather Forecast

Advertisements
Track Severe Weather on mobile